sensor_id;sensor_type;location;lat;lon;timestamp;P1;durP1;ratioP1;P2;durP2;ratioP2
69551;SDS011;63774;45.292;11.784;2022-10-26T00:01:16;5.60;;;2.60;;
69551;SDS011;63774;45.292;11.784;2022-10-26T00:03:42;4.70;;;3.00;;
69551;SDS011;63774;45.292;11.784;2022-10-26T00:06:13;4.80;;;2.80;;
69551;SDS011;63774;45.292;11.784;2022-10-26T00:08:40;5.00;;;2.50;;
69551;SDS011;63774;45.292;11.784;2022-10-26T00:11:07;5.40;;;2.60;;
69551;SDS011;63774;45.292;11.784;2022-10-26T00:13:33;4.20;;;2.70;;
69551;SDS011;63774;45.292;11.784;2022-10-26T00:15:59;3.50;;;2.10;;
69551;SDS011;63774;45.292;11.784;2022-10-26T00:18:24;3.80;;;2.40;;
69551;SDS011;63774;45.292;11.784;2022-10-26T00:20:50;4.20;;;2.30;;
69551;SDS011;63774;45.292;11.784;2022-10-26T00:23:16;5.90;;;2.80;;
69551;SDS011;63774;45.292;11.784;2022-10-26T00:25:42;3.90;;;2.40;;
69551;SDS011;63774;45.292;11.784;2022-10-26T00:28:08;6.00;;;2.40;;
69551;SDS011;63774;45.292;11.784;2022-10-26T00:30:33;3.70;;;2.30;;
69551;SDS011;63774;45.292;11.784;2022-10-26T00:33:02;4.30;;;2.60;;
69551;SDS011;63774;45.292;11.784;2022-10-26T00:35:28;4.20;;;2.30;;
69551;SDS011;63774;45.292;11.784;2022-10-26T00:37:53;5.90;;;2.60;;
69551;SDS011;63774;45.292;11.784;2022-10-26T00:40:20;3.70;;;2.30;;
69551;SDS011;63774;45.292;11.784;2022-10-26T00:42:45;3.80;;;2.40;;
69551;SDS011;63774;45.292;11.784;2022-10-26T00:45:17;4.80;;;2.70;;
69551;SDS011;63774;45.292;11.784;2022-10-26T00:48:04;4.70;;;2.70;;
69551;SDS011;63774;45.292;11.784;2022-10-26T00:50:32;3.50;;;2.30;;
69551;SDS011;63774;45.292;11.784;2022-10-26T00:53:01;4.20;;;2.40;;
69551;SDS011;63774;45.292;11.784;2022-10-26T00:55:30;3.80;;;2.60;;
69551;SDS011;63774;45.292;11.784;2022-10-26T00:57:59;3.40;;;2.30;;
69551;SDS011;63774;45.292;11.784;2022-10-26T01:00:26;3.50;;;2.40;;
69551;SDS011;63774;45.292;11.784;2022-10-26T01:02:52;3.80;;;2.30;;
69551;SDS011;63774;45.292;11.784;2022-10-26T01:05:19;4.40;;;2.30;;
69551;SDS011;63774;45.292;11.784;2022-10-26T01:07:45;3.40;;;2.10;;
69551;SDS011;63774;45.292;11.784;2022-10-26T01:10:12;3.10;;;2.20;;
69551;SDS011;63774;45.292;11.784;2022-10-26T01:12:38;3.60;;;2.30;;
69551;SDS011;63774;45.292;11.784;2022-10-26T01:15:04;3.40;;;2.00;;
69551;SDS011;63774;45.292;11.784;2022-10-26T01:17:46;7.20;;;2.20;;
69551;SDS011;63774;45.292;11.784;2022-10-26T01:23:10;4.40;;;2.30;;
69551;SDS011;63774;45.292;11.784;2022-10-26T01:25:52;3.60;;;2.00;;
69551;SDS011;63774;45.292;11.784;2022-10-26T01:31:15;3.20;;;1.80;;
69551;SDS011;63774;45.292;11.784;2022-10-26T01:33:51;3.40;;;2.30;;
69551;SDS011;63774;45.292;11.784;2022-10-26T01:36:43;4.20;;;2.00;;
69551;SDS011;63774;45.292;11.784;2022-10-26T01:39:34;4.80;;;1.90;;
69551;SDS011;63774;45.292;11.784;2022-10-26T01:42:03;2.90;;;1.90;;
69551;SDS011;63774;45.292;11.784;2022-10-26T01:44:33;3.30;;;2.00;;
69551;SDS011;63774;45.292;11.784;2022-10-26T01:47:06;2.40;;;1.70;;
69551;SDS011;63774;45.292;11.784;2022-10-26T01:49:38;2.70;;;1.70;;
69551;SDS011;63774;45.292;11.784;2022-10-26T01:52:10;2.80;;;1.90;;
69551;SDS011;63774;45.292;11.784;2022-10-26T01:54:35;2.70;;;1.90;;
69551;SDS011;63774;45.292;11.784;2022-10-26T01:57:03;3.60;;;1.80;;
69551;SDS011;63774;45.292;11.784;2022-10-26T01:59:41;3.30;;;2.00;;
69551;SDS011;63774;45.292;11.784;2022-10-26T02:07:54;5.20;;;1.90;;
69551;SDS011;63774;45.292;11.784;2022-10-26T02:10:27;4.20;;;1.70;;
69551;SDS011;63774;45.292;11.784;2022-10-26T02:13:05;4.00;;;1.50;;
69551;SDS011;63774;45.292;11.784;2022-10-26T02:16:02;3.30;;;1.80;;
69551;SDS011;63774;45.292;11.784;2022-10-26T02:21:27;2.70;;;1.80;;
69551;SDS011;63774;45.292;11.784;2022-10-26T02:23:59;2.10;;;1.40;;
69551;SDS011;63774;45.292;11.784;2022-10-26T02:26:27;2.90;;;1.80;;
69551;SDS011;63774;45.292;11.784;2022-10-26T02:28:55;3.10;;;1.70;;
69551;SDS011;63774;45.292;11.784;2022-10-26T02:31:23;2.60;;;1.70;;
69551;SDS011;63774;45.292;11.784;2022-10-26T02:33:50;2.30;;;1.70;;
69551;SDS011;63774;45.292;11.784;2022-10-26T02:36:21;2.20;;;1.40;;
69551;SDS011;63774;45.292;11.784;2022-10-26T02:38:52;2.60;;;1.40;;
69551;SDS011;63774;45.292;11.784;2022-10-26T02:41:21;2.90;;;1.80;;
69551;SDS011;63774;45.292;11.784;2022-10-26T02:43:52;4.50;;;1.90;;
69551;SDS011;63774;45.292;11.784;2022-10-26T02:46:32;3.40;;;1.90;;
69551;SDS011;63774;45.292;11.784;2022-10-26T02:48:57;3.30;;;1.80;;
69551;SDS011;63774;45.292;11.784;2022-10-26T02:51:44;2.40;;;1.60;;
69551;SDS011;63774;45.292;11.784;2022-10-26T02:57:09;2.20;;;1.70;;
69551;SDS011;63774;45.292;11.784;2022-10-26T02:59:39;3.00;;;1.70;;
69551;SDS011;63774;45.292;11.784;2022-10-26T03:02:07;2.60;;;1.70;;
69551;SDS011;63774;45.292;11.784;2022-10-26T03:04:35;3.00;;;1.70;;
69551;SDS011;63774;45.292;11.784;2022-10-26T03:07:00;2.20;;;1.70;;
69551;SDS011;63774;45.292;11.784;2022-10-26T03:09:26;3.10;;;1.80;;
69551;SDS011;63774;45.292;11.784;2022-10-26T03:11:52;4.50;;;1.90;;
69551;SDS011;63774;45.292;11.784;2022-10-26T03:14:17;3.80;;;1.70;;
69551;SDS011;63774;45.292;11.784;2022-10-26T03:16:43;5.70;;;2.00;;
69551;SDS011;63774;45.292;11.784;2022-10-26T03:19:09;3.10;;;1.90;;
69551;SDS011;63774;45.292;11.784;2022-10-26T03:21:35;4.20;;;2.10;;
69551;SDS011;63774;45.292;11.784;2022-10-26T03:24:00;4.70;;;2.30;;
69551;SDS011;63774;45.292;11.784;2022-10-26T03:26:26;4.30;;;2.20;;
69551;SDS011;63774;45.292;11.784;2022-10-26T03:28:51;3.00;;;2.00;;
69551;SDS011;63774;45.292;11.784;2022-10-26T03:31:17;4.40;;;2.00;;
69551;SDS011;63774;45.292;11.784;2022-10-26T03:33:42;4.00;;;1.90;;
69551;SDS011;63774;45.292;11.784;2022-10-26T03:36:08;3.40;;;2.00;;
69551;SDS011;63774;45.292;11.784;2022-10-26T03:38:33;3.90;;;1.90;;
69551;SDS011;63774;45.292;11.784;2022-10-26T03:40:59;3.90;;;2.10;;
69551;SDS011;63774;45.292;11.784;2022-10-26T03:43:25;4.60;;;2.10;;
69551;SDS011;63774;45.292;11.784;2022-10-26T03:45:50;3.00;;;1.90;;
69551;SDS011;63774;45.292;11.784;2022-10-26T03:48:16;3.70;;;2.40;;
69551;SDS011;63774;45.292;11.784;2022-10-26T03:50:41;3.40;;;1.80;;
69551;SDS011;63774;45.292;11.784;2022-10-26T03:53:07;3.70;;;1.90;;
69551;SDS011;63774;45.292;11.784;2022-10-26T03:55:32;3.30;;;2.00;;
69551;SDS011;63774;45.292;11.784;2022-10-26T03:57:58;5.00;;;2.30;;
69551;SDS011;63774;45.292;11.784;2022-10-26T04:00:23;3.70;;;1.90;;
69551;SDS011;63774;45.292;11.784;2022-10-26T04:02:53;3.20;;;1.70;;
69551;SDS011;63774;45.292;11.784;2022-10-26T04:05:20;5.00;;;2.00;;
69551;SDS011;63774;45.292;11.784;2022-10-26T04:07:56;4.50;;;2.60;;
69551;SDS011;63774;45.292;11.784;2022-10-26T04:10:29;3.50;;;1.70;;
69551;SDS011;63774;45.292;11.784;2022-10-26T04:12:55;3.40;;;1.70;;
69551;SDS011;63774;45.292;11.784;2022-10-26T04:15:23;3.10;;;1.70;;
69551;SDS011;63774;45.292;11.784;2022-10-26T04:17:54;4.50;;;1.90;;
69551;SDS011;63774;45.292;11.784;2022-10-26T04:20:23;3.00;;;1.90;;
69551;SDS011;63774;45.292;11.784;2022-10-26T04:23:03;4.50;;;2.10;;
69551;SDS011;63774;45.292;11.784;2022-10-26T04:25:30;3.90;;;1.90;;
69551;SDS011;63774;45.292;11.784;2022-10-26T04:27:56;5.80;;;1.80;;
69551;SDS011;63774;45.292;11.784;2022-10-26T04:30:22;3.00;;;1.80;;
69551;SDS011;63774;45.292;11.784;2022-10-26T04:32:47;3.50;;;1.80;;
69551;SDS011;63774;45.292;11.784;2022-10-26T04:35:13;3.40;;;2.00;;
69551;SDS011;63774;45.292;11.784;2022-10-26T04:37:38;2.80;;;1.70;;
69551;SDS011;63774;45.292;11.784;2022-10-26T04:40:04;3.00;;;2.00;;
69551;SDS011;63774;45.292;11.784;2022-10-26T04:42:29;4.10;;;2.00;;
69551;SDS011;63774;45.292;11.784;2022-10-26T04:44:58;4.40;;;2.10;;
69551;SDS011;63774;45.292;11.784;2022-10-26T04:47:24;3.60;;;1.70;;
69551;SDS011;63774;45.292;11.784;2022-10-26T04:49:50;2.80;;;1.70;;
69551;SDS011;63774;45.292;11.784;2022-10-26T04:52:15;4.80;;;2.20;;
69551;SDS011;63774;45.292;11.784;2022-10-26T04:54:40;3.20;;;1.80;;
69551;SDS011;63774;45.292;11.784;2022-10-26T04:57:06;3.50;;;1.60;;
69551;SDS011;63774;45.292;11.784;2022-10-26T04:59:31;3.70;;;1.70;;
69551;SDS011;63774;45.292;11.784;2022-10-26T05:01:57;3.80;;;1.90;;
69551;SDS011;63774;45.292;11.784;2022-10-26T05:04:22;3.10;;;1.90;;
69551;SDS011;63774;45.292;11.784;2022-10-26T05:06:50;4.00;;;2.00;;
69551;SDS011;63774;45.292;11.784;2022-10-26T05:09:17;4.00;;;1.50;;
69551;SDS011;63774;45.292;11.784;2022-10-26T05:11:43;3.40;;;1.70;;
69551;SDS011;63774;45.292;11.784;2022-10-26T05:14:08;4.30;;;1.80;;
69551;SDS011;63774;45.292;11.784;2022-10-26T05:16:34;3.30;;;1.80;;
69551;SDS011;63774;45.292;11.784;2022-10-26T05:18:59;4.20;;;1.60;;
69551;SDS011;63774;45.292;11.784;2022-10-26T05:21:25;4.30;;;1.70;;
69551;SDS011;63774;45.292;11.784;2022-10-26T05:23:51;6.00;;;1.70;;
69551;SDS011;63774;45.292;11.784;2022-10-26T05:26:19;3.40;;;1.50;;
69551;SDS011;63774;45.292;11.784;2022-10-26T05:28:46;2.60;;;1.50;;
69551;SDS011;63774;45.292;11.784;2022-10-26T05:31:11;4.60;;;2.20;;
69551;SDS011;63774;45.292;11.784;2022-10-26T05:33:37;3.10;;;1.70;;
69551;SDS011;63774;45.292;11.784;2022-10-26T05:36:03;4.10;;;1.90;;
69551;SDS011;63774;45.292;11.784;2022-10-26T05:38:29;2.00;;;1.50;;
69551;SDS011;63774;45.292;11.784;2022-10-26T05:40:55;4.30;;;1.50;;
69551;SDS011;63774;45.292;11.784;2022-10-26T05:43:21;3.10;;;1.70;;
69551;SDS011;63774;45.292;11.784;2022-10-26T05:45:48;3.10;;;1.50;;
69551;SDS011;63774;45.292;11.784;2022-10-26T05:48:15;2.70;;;1.50;;
69551;SDS011;63774;45.292;11.784;2022-10-26T05:50:40;3.10;;;1.60;;
69551;SDS011;63774;45.292;11.784;2022-10-26T05:53:06;3.70;;;1.60;;
69551;SDS011;63774;45.292;11.784;2022-10-26T05:55:31;3.00;;;1.60;;
69551;SDS011;63774;45.292;11.784;2022-10-26T05:57:57;5.50;;;1.80;;
69551;SDS011;63774;45.292;11.784;2022-10-26T06:00:24;3.40;;;1.50;;
69551;SDS011;63774;45.292;11.784;2022-10-26T06:05:57;3.30;;;1.40;;
69551;SDS011;63774;45.292;11.784;2022-10-26T06:08:24;3.20;;;1.60;;
69551;SDS011;63774;45.292;11.784;2022-10-26T06:10:51;4.20;;;1.80;;
69551;SDS011;63774;45.292;11.784;2022-10-26T06:13:18;2.70;;;1.40;;
69551;SDS011;63774;45.292;11.784;2022-10-26T06:18:38;4.10;;;1.70;;
69551;SDS011;63774;45.292;11.784;2022-10-26T06:24:33;3.80;;;1.60;;
69551;SDS011;63774;45.292;11.784;2022-10-26T06:30:05;2.80;;;1.50;;
69551;SDS011;63774;45.292;11.784;2022-10-26T06:32:36;2.20;;;1.50;;
69551;SDS011;63774;45.292;11.784;2022-10-26T06:37:41;2.60;;;1.70;;
69551;SDS011;63774;45.292;11.784;2022-10-26T06:40:09;2.30;;;1.50;;
69551;SDS011;63774;45.292;11.784;2022-10-26T06:42:39;5.60;;;1.50;;
69551;SDS011;63774;45.292;11.784;2022-10-26T06:45:05;3.30;;;1.60;;
69551;SDS011;63774;45.292;11.784;2022-10-26T06:55:52;2.50;;;1.40;;
69551;SDS011;63774;45.292;11.784;2022-10-26T06:58:19;2.50;;;1.50;;
69551;SDS011;63774;45.292;11.784;2022-10-26T07:00:48;2.00;;;1.20;;
69551;SDS011;63774;45.292;11.784;2022-10-26T07:03:16;2.10;;;1.30;;
69551;SDS011;63774;45.292;11.784;2022-10-26T07:05:42;3.40;;;1.50;;
69551;SDS011;63774;45.292;11.784;2022-10-26T07:08:08;3.10;;;1.40;;
69551;SDS011;63774;45.292;11.784;2022-10-26T07:10:34;3.00;;;1.40;;
69551;SDS011;63774;45.292;11.784;2022-10-26T07:13:03;4.40;;;1.60;;
69551;SDS011;63774;45.292;11.784;2022-10-26T07:15:32;2.40;;;1.30;;
69551;SDS011;63774;45.292;11.784;2022-10-26T07:17:59;3.40;;;1.40;;
69551;SDS011;63774;45.292;11.784;2022-10-26T07:20:24;3.30;;;1.40;;
69551;SDS011;63774;45.292;11.784;2022-10-26T07:22:50;3.30;;;1.50;;
69551;SDS011;63774;45.292;11.784;2022-10-26T07:25:16;4.70;;;1.50;;
69551;SDS011;63774;45.292;11.784;2022-10-26T07:27:42;4.20;;;1.50;;
69551;SDS011;63774;45.292;11.784;2022-10-26T07:30:08;2.90;;;1.40;;
69551;SDS011;63774;45.292;11.784;2022-10-26T07:32:34;3.40;;;1.40;;
69551;SDS011;63774;45.292;11.784;2022-10-26T07:34:59;3.20;;;1.40;;
69551;SDS011;63774;45.292;11.784;2022-10-26T07:37:24;2.60;;;1.50;;
69551;SDS011;63774;45.292;11.784;2022-10-26T07:39:50;3.10;;;1.50;;
69551;SDS011;63774;45.292;11.784;2022-10-26T07:42:15;2.40;;;1.40;;
69551;SDS011;63774;45.292;11.784;2022-10-26T07:44:41;3.30;;;1.30;;
69551;SDS011;63774;45.292;11.784;2022-10-26T07:47:06;3.30;;;1.60;;
69551;SDS011;63774;45.292;11.784;2022-10-26T07:49:32;2.40;;;1.30;;
69551;SDS011;63774;45.292;11.784;2022-10-26T07:51:57;2.60;;;1.20;;
69551;SDS011;63774;45.292;11.784;2022-10-26T07:54:22;1.90;;;1.20;;
69551;SDS011;63774;45.292;11.784;2022-10-26T07:56:48;3.70;;;1.60;;
69551;SDS011;63774;45.292;11.784;2022-10-26T07:59:14;3.80;;;1.60;;
69551;SDS011;63774;45.292;11.784;2022-10-26T08:01:41;3.10;;;1.50;;
69551;SDS011;63774;45.292;11.784;2022-10-26T08:04:07;3.10;;;1.50;;
69551;SDS011;63774;45.292;11.784;2022-10-26T08:06:32;2.90;;;1.40;;
69551;SDS011;63774;45.292;11.784;2022-10-26T08:08:58;4.20;;;1.70;;
69551;SDS011;63774;45.292;11.784;2022-10-26T08:11:23;3.40;;;1.60;;
69551;SDS011;63774;45.292;11.784;2022-10-26T08:13:52;4.10;;;1.50;;
69551;SDS011;63774;45.292;11.784;2022-10-26T08:16:18;5.30;;;1.40;;
69551;SDS011;63774;45.292;11.784;2022-10-26T08:18:46;4.30;;;1.50;;
69551;SDS011;63774;45.292;11.784;2022-10-26T08:21:12;3.10;;;1.50;;
69551;SDS011;63774;45.292;11.784;2022-10-26T08:23:38;2.30;;;1.40;;
69551;SDS011;63774;45.292;11.784;2022-10-26T08:26:04;3.70;;;1.60;;
69551;SDS011;63774;45.292;11.784;2022-10-26T08:28:30;2.60;;;1.70;;
69551;SDS011;63774;45.292;11.784;2022-10-26T08:30:56;3.50;;;1.90;;
69551;SDS011;63774;45.292;11.784;2022-10-26T08:33:22;4.80;;;2.30;;
69551;SDS011;63774;45.292;11.784;2022-10-26T08:35:53;3.20;;;1.80;;
69551;SDS011;63774;45.292;11.784;2022-10-26T08:38:23;3.30;;;1.80;;
69551;SDS011;63774;45.292;11.784;2022-10-26T08:40:48;3.70;;;1.80;;
69551;SDS011;63774;45.292;11.784;2022-10-26T08:43:17;3.10;;;1.90;;
69551;SDS011;63774;45.292;11.784;2022-10-26T08:45:54;3.50;;;1.90;;
69551;SDS011;63774;45.292;11.784;2022-10-26T08:48:26;3.20;;;1.60;;
69551;SDS011;63774;45.292;11.784;2022-10-26T08:51:00;3.30;;;1.80;;
69551;SDS011;63774;45.292;11.784;2022-10-26T08:59:04;2.80;;;2.00;;
69551;SDS011;63774;45.292;11.784;2022-10-26T09:01:36;4.70;;;1.90;;
69551;SDS011;63774;45.292;11.784;2022-10-26T09:04:02;4.30;;;2.00;;
69551;SDS011;63774;45.292;11.784;2022-10-26T09:09:16;6.20;;;2.40;;
69551;SDS011;63774;45.292;11.784;2022-10-26T09:14:20;5.40;;;2.80;;
69551;SDS011;63774;45.292;11.784;2022-10-26T09:17:11;5.70;;;3.00;;
69551;SDS011;63774;45.292;11.784;2022-10-26T09:19:44;7.70;;;3.00;;
69551;SDS011;63774;45.292;11.784;2022-10-26T09:22:24;5.60;;;2.60;;
69551;SDS011;63774;45.292;11.784;2022-10-26T09:24:57;9.80;;;3.70;;
69551;SDS011;63774;45.292;11.784;2022-10-26T09:27:28;7.90;;;3.50;;
69551;SDS011;63774;45.292;11.784;2022-10-26T09:29:58;7.40;;;3.50;;
69551;SDS011;63774;45.292;11.784;2022-10-26T09:32:38;7.00;;;3.50;;
69551;SDS011;63774;45.292;11.784;2022-10-26T09:35:12;10.10;;;3.50;;
69551;SDS011;63774;45.292;11.784;2022-10-26T09:37:39;7.90;;;3.20;;
69551;SDS011;63774;45.292;11.784;2022-10-26T09:40:16;8.00;;;3.40;;
69551;SDS011;63774;45.292;11.784;2022-10-26T09:45:31;7.60;;;3.60;;
69551;SDS011;63774;45.292;11.784;2022-10-26T09:48:10;7.50;;;3.30;;
69551;SDS011;63774;45.292;11.784;2022-10-26T09:50:39;7.80;;;4.00;;
69551;SDS011;63774;45.292;11.784;2022-10-26T09:53:09;7.50;;;3.40;;
69551;SDS011;63774;45.292;11.784;2022-10-26T09:55:38;7.70;;;3.50;;
69551;SDS011;63774;45.292;11.784;2022-10-26T09:58:09;7.90;;;3.40;;
69551;SDS011;63774;45.292;11.784;2022-10-26T10:00:38;6.40;;;3.20;;
69551;SDS011;63774;45.292;11.784;2022-10-26T10:03:16;7.70;;;3.40;;
69551;SDS011;63774;45.292;11.784;2022-10-26T10:05:43;7.70;;;3.30;;
69551;SDS011;63774;45.292;11.784;2022-10-26T10:11:04;8.50;;;3.80;;
69551;SDS011;63774;45.292;11.784;2022-10-26T10:13:33;7.10;;;3.60;;
69551;SDS011;63774;45.292;11.784;2022-10-26T10:16:10;6.80;;;3.40;;
69551;SDS011;63774;45.292;11.784;2022-10-26T10:18:56;9.40;;;3.90;;
69551;SDS011;63774;45.292;11.784;2022-10-26T10:21:33;6.50;;;3.60;;
69551;SDS011;63774;45.292;11.784;2022-10-26T10:24:26;7.70;;;3.40;;
69551;SDS011;63774;45.292;11.784;2022-10-26T10:29:28;7.20;;;3.50;;
69551;SDS011;63774;45.292;11.784;2022-10-26T10:31:59;7.90;;;3.80;;
69551;SDS011;63774;45.292;11.784;2022-10-26T10:34:28;9.10;;;3.70;;
69551;SDS011;63774;45.292;11.784;2022-10-26T10:36:55;8.20;;;3.50;;
69551;SDS011;63774;45.292;11.784;2022-10-26T10:42:05;7.50;;;3.50;;
69551;SDS011;63774;45.292;11.784;2022-10-26T10:44:53;7.50;;;3.50;;
69551;SDS011;63774;45.292;11.784;2022-10-26T10:47:27;8.00;;;3.70;;
69551;SDS011;63774;45.292;11.784;2022-10-26T10:50:01;7.20;;;3.40;;
69551;SDS011;63774;45.292;11.784;2022-10-26T10:52:30;6.70;;;3.30;;
69551;SDS011;63774;45.292;11.784;2022-10-26T10:55:20;7.40;;;3.40;;
69551;SDS011;63774;45.292;11.784;2022-10-26T11:00:26;9.90;;;3.70;;
69551;SDS011;63774;45.292;11.784;2022-10-26T11:03:02;8.20;;;3.60;;
69551;SDS011;63774;45.292;11.784;2022-10-26T11:08:14;6.10;;;2.90;;
69551;SDS011;63774;45.292;11.784;2022-10-26T11:10:46;7.30;;;3.20;;
69551;SDS011;63774;45.292;11.784;2022-10-26T11:13:18;6.40;;;3.30;;
69551;SDS011;63774;45.292;11.784;2022-10-26T11:15:49;7.10;;;3.30;;
69551;SDS011;63774;45.292;11.784;2022-10-26T11:20:59;7.10;;;3.30;;
69551;SDS011;63774;45.292;11.784;2022-10-26T11:23:35;6.80;;;3.40;;
69551;SDS011;63774;45.292;11.784;2022-10-26T11:26:16;6.40;;;3.00;;
69551;SDS011;63774;45.292;11.784;2022-10-26T11:28:57;8.20;;;3.50;;
69551;SDS011;63774;45.292;11.784;2022-10-26T11:31:29;24.20;;;7.00;;
69551;SDS011;63774;45.292;11.784;2022-10-26T11:36:36;29.90;;;8.20;;
69551;SDS011;63774;45.292;11.784;2022-10-26T11:42:00;22.20;;;7.10;;
69551;SDS011;63774;45.292;11.784;2022-10-26T11:44:38;22.90;;;7.10;;
69551;SDS011;63774;45.292;11.784;2022-10-26T11:47:13;18.30;;;6.10;;
69551;SDS011;63774;45.292;11.784;2022-10-26T11:49:46;22.40;;;6.20;;
69551;SDS011;63774;45.292;11.784;2022-10-26T11:55:00;17.00;;;5.50;;
69551;SDS011;63774;45.292;11.784;2022-10-26T11:57:29;19.00;;;5.70;;
69551;SDS011;63774;45.292;11.784;2022-10-26T12:00:05;17.80;;;5.50;;
69551;SDS011;63774;45.292;11.784;2022-10-26T12:02:39;14.10;;;4.90;;
69551;SDS011;63774;45.292;11.784;2022-10-26T12:07:42;9.70;;;4.20;;
69551;SDS011;63774;45.292;11.784;2022-10-26T12:10:33;13.30;;;5.20;;
69551;SDS011;63774;45.292;11.784;2022-10-26T12:13:16;10.80;;;4.60;;
69551;SDS011;63774;45.292;11.784;2022-10-26T12:18:46;12.80;;;5.50;;
69551;SDS011;63774;45.292;11.784;2022-10-26T12:21:14;10.70;;;5.40;;
69551;SDS011;63774;45.292;11.784;2022-10-26T12:26:44;13.90;;;6.50;;
69551;SDS011;63774;45.292;11.784;2022-10-26T12:29:23;13.10;;;6.80;;
69551;SDS011;63774;45.292;11.784;2022-10-26T12:31:52;12.90;;;6.50;;
69551;SDS011;63774;45.292;11.784;2022-10-26T12:55:19;13.30;;;5.90;;
69551;SDS011;63774;45.292;11.784;2022-10-26T13:00:36;14.00;;;5.70;;
69551;SDS011;63774;45.292;11.784;2022-10-26T13:03:32;12.60;;;5.60;;
69551;SDS011;63774;45.292;11.784;2022-10-26T13:08:44;11.80;;;5.50;;
69551;SDS011;63774;45.292;11.784;2022-10-26T13:14:40;12.30;;;6.30;;
69551;SDS011;63774;45.292;11.784;2022-10-26T13:16:51;13.00;;;6.70;;
69551;SDS011;63774;45.292;11.784;2022-10-26T13:21:59;14.30;;;6.60;;
69551;SDS011;63774;45.292;11.784;2022-10-26T13:24:26;14.80;;;6.50;;
69551;SDS011;63774;45.292;11.784;2022-10-26T13:29:32;15.80;;;7.20;;
69551;SDS011;63774;45.292;11.784;2022-10-26T13:32:33;15.50;;;7.10;;
69551;SDS011;63774;45.292;11.784;2022-10-26T13:35:00;18.90;;;7.20;;
69551;SDS011;63774;45.292;11.784;2022-10-26T13:37:29;14.60;;;7.20;;
69551;SDS011;63774;45.292;11.784;2022-10-26T13:39:58;15.70;;;7.30;;
69551;SDS011;63774;45.292;11.784;2022-10-26T13:43:10;12.50;;;5.90;;
69551;SDS011;63774;45.292;11.784;2022-10-26T13:45:15;15.70;;;7.40;;
69551;SDS011;63774;45.292;11.784;2022-10-26T13:47:47;15.60;;;6.70;;
69551;SDS011;63774;45.292;11.784;2022-10-26T13:50:21;17.10;;;6.40;;
69551;SDS011;63774;45.292;11.784;2022-10-26T13:52:50;12.50;;;6.60;;
69551;SDS011;63774;45.292;11.784;2022-10-26T13:55:23;11.40;;;5.50;;
69551;SDS011;63774;45.292;11.784;2022-10-26T14:03:46;13.00;;;6.40;;
69551;SDS011;63774;45.292;11.784;2022-10-26T14:06:19;11.00;;;6.00;;
69551;SDS011;63774;45.292;11.784;2022-10-26T14:08:57;9.40;;;5.90;;
69551;SDS011;63774;45.292;11.784;2022-10-26T14:11:35;13.60;;;7.00;;
69551;SDS011;63774;45.292;11.784;2022-10-26T14:14:28;12.20;;;6.70;;
69551;SDS011;63774;45.292;11.784;2022-10-26T14:16:56;11.10;;;5.40;;
69551;SDS011;63774;45.292;11.784;2022-10-26T14:19:26;12.20;;;6.20;;
69551;SDS011;63774;45.292;11.784;2022-10-26T14:21:53;10.10;;;5.70;;
69551;SDS011;63774;45.292;11.784;2022-10-26T14:24:20;16.60;;;6.40;;
69551;SDS011;63774;45.292;11.784;2022-10-26T14:26:57;15.70;;;6.50;;
69551;SDS011;63774;45.292;11.784;2022-10-26T14:29:24;13.20;;;5.90;;
69551;SDS011;63774;45.292;11.784;2022-10-26T14:31:51;12.90;;;6.20;;
69551;SDS011;63774;45.292;11.784;2022-10-26T14:34:19;13.30;;;6.30;;
69551;SDS011;63774;45.292;11.784;2022-10-26T14:44:53;15.90;;;6.10;;
69551;SDS011;63774;45.292;11.784;2022-10-26T14:47:24;12.60;;;6.40;;
69551;SDS011;63774;45.292;11.784;2022-10-26T14:49:52;11.80;;;6.10;;
69551;SDS011;63774;45.292;11.784;2022-10-26T14:52:23;15.40;;;6.50;;
69551;SDS011;63774;45.292;11.784;2022-10-26T14:55:11;12.90;;;6.30;;
69551;SDS011;63774;45.292;11.784;2022-10-26T14:57:39;17.30;;;6.30;;
69551;SDS011;63774;45.292;11.784;2022-10-26T15:00:14;11.90;;;6.10;;
69551;SDS011;63774;45.292;11.784;2022-10-26T15:02:54;11.30;;;6.20;;
69551;SDS011;63774;45.292;11.784;2022-10-26T15:05:25;10.90;;;6.30;;
69551;SDS011;63774;45.292;11.784;2022-10-26T15:07:53;11.40;;;5.60;;
69551;SDS011;63774;45.292;11.784;2022-10-26T15:15:43;9.80;;;5.30;;
69551;SDS011;63774;45.292;11.784;2022-10-26T15:18:14;8.90;;;5.10;;
69551;SDS011;63774;45.292;11.784;2022-10-26T15:20:46;10.50;;;5.40;;
69551;SDS011;63774;45.292;11.784;2022-10-26T15:23:14;13.40;;;5.30;;
69551;SDS011;63774;45.292;11.784;2022-10-26T15:25:40;9.60;;;4.50;;
69551;SDS011;63774;45.292;11.784;2022-10-26T15:28:29;11.90;;;5.30;;
69551;SDS011;63774;45.292;11.784;2022-10-26T15:30:57;8.20;;;4.80;;
69551;SDS011;63774;45.292;11.784;2022-10-26T15:33:23;11.10;;;4.20;;
69551;SDS011;63774;45.292;11.784;2022-10-26T15:35:48;10.20;;;4.30;;
69551;SDS011;63774;45.292;11.784;2022-10-26T15:38:14;10.20;;;4.40;;
69551;SDS011;63774;45.292;11.784;2022-10-26T15:40:42;6.70;;;4.20;;
69551;SDS011;63774;45.292;11.784;2022-10-26T15:43:09;10.30;;;4.90;;
69551;SDS011;63774;45.292;11.784;2022-10-26T15:45:43;7.80;;;4.10;;
69551;SDS011;63774;45.292;11.784;2022-10-26T15:50:43;8.70;;;4.20;;
69551;SDS011;63774;45.292;11.784;2022-10-26T15:53:12;10.30;;;4.30;;
69551;SDS011;63774;45.292;11.784;2022-10-26T15:55:42;8.80;;;3.90;;
69551;SDS011;63774;45.292;11.784;2022-10-26T15:58:08;9.10;;;4.50;;
69551;SDS011;63774;45.292;11.784;2022-10-26T16:00:35;8.30;;;4.70;;
69551;SDS011;63774;45.292;11.784;2022-10-26T16:03:01;9.10;;;4.60;;
69551;SDS011;63774;45.292;11.784;2022-10-26T16:05:27;10.70;;;4.90;;
69551;SDS011;63774;45.292;11.784;2022-10-26T16:07:52;9.70;;;4.90;;
69551;SDS011;63774;45.292;11.784;2022-10-26T16:10:20;9.90;;;5.00;;
69551;SDS011;63774;45.292;11.784;2022-10-26T16:12:47;10.10;;;4.90;;
69551;SDS011;63774;45.292;11.784;2022-10-26T16:15:18;11.30;;;5.30;;
69551;SDS011;63774;45.292;11.784;2022-10-26T16:17:47;9.90;;;5.40;;
69551;SDS011;63774;45.292;11.784;2022-10-26T16:20:15;11.80;;;5.80;;
69551;SDS011;63774;45.292;11.784;2022-10-26T16:22:43;12.50;;;6.40;;
69551;SDS011;63774;45.292;11.784;2022-10-26T16:25:13;10.20;;;5.70;;
69551;SDS011;63774;45.292;11.784;2022-10-26T16:27:40;15.00;;;6.30;;
69551;SDS011;63774;45.292;11.784;2022-10-26T16:30:06;13.60;;;6.60;;
69551;SDS011;63774;45.292;11.784;2022-10-26T16:32:34;11.20;;;6.40;;
69551;SDS011;63774;45.292;11.784;2022-10-26T16:34:59;12.30;;;6.20;;
69551;SDS011;63774;45.292;11.784;2022-10-26T16:37:26;11.10;;;6.50;;
69551;SDS011;63774;45.292;11.784;2022-10-26T16:39:55;11.30;;;6.60;;
69551;SDS011;63774;45.292;11.784;2022-10-26T16:42:22;12.90;;;7.40;;
69551;SDS011;63774;45.292;11.784;2022-10-26T16:44:47;15.00;;;7.40;;
69551;SDS011;63774;45.292;11.784;2022-10-26T16:47:12;14.00;;;7.60;;
69551;SDS011;63774;45.292;11.784;2022-10-26T16:49:38;18.20;;;8.40;;
69551;SDS011;63774;45.292;11.784;2022-10-26T16:52:07;13.10;;;8.20;;
69551;SDS011;63774;45.292;11.784;2022-10-26T16:54:34;13.60;;;8.10;;
69551;SDS011;63774;45.292;11.784;2022-10-26T16:57:00;17.50;;;9.00;;
69551;SDS011;63774;45.292;11.784;2022-10-26T16:59:25;15.80;;;8.70;;
69551;SDS011;63774;45.292;11.784;2022-10-26T17:01:51;17.80;;;10.10;;
69551;SDS011;63774;45.292;11.784;2022-10-26T17:04:16;19.80;;;9.80;;
69551;SDS011;63774;45.292;11.784;2022-10-26T17:06:42;16.30;;;9.70;;
69551;SDS011;63774;45.292;11.784;2022-10-26T17:09:07;18.60;;;9.50;;